Time;durP1;ratioP1;P1;durP2;ratioP2;P2;SDS_P1;SDS_P2;PMS_P1;PMS_P2;Temp;Humidity;BMP_temperature;BMP_pressure;BME280_temperature;BME280_humidity;BME280_pressure;Samples;Min_cycle;Max_cycle;Signal;HPM_P1;HPM_P2
2022/04/30 00:02:08;;;;;;;5.93;3.90;;;9.50;99.90;;;;;;5043987;28;20217;-67
2022/04/30 00:04:42;;;;;;;5.83;4.30;;;9.40;99.90;;;;;;5044317;28;20261;-67
2022/04/30 00:07:08;;;;;;;6.03;4.83;;;9.50;99.90;;;;;;5043513;28;20186;-67
2022/04/30 00:09:34;;;;;;;4.60;3.97;;;9.30;99.90;;;;;;5044230;28;20568;-66
2022/04/30 00:12:00;;;;;;;7.13;4.17;;;9.30;99.90;;;;;;5043809;28;20190;-68
2022/04/30 00:14:26;;;;;;;6.77;4.03;;;9.30;99.90;;;;;;5044114;28;20190;-68
2022/04/30 00:16:52;;;;;;;4.83;3.93;;;9.30;99.90;;;;;;5043588;28;20201;-68
2022/04/30 00:19:19;;;;;;;5.93;4.13;;;9.30;99.90;;;;;;5044031;28;20213;-67
2022/04/30 00:21:45;;;;;;;6.17;4.23;;;9.20;99.90;;;;;;5044122;28;20212;-67
2022/04/30 00:24:10;;;;;;;6.40;4.20;;;9.30;99.90;;;;;;5044217;28;20183;-66
2022/04/30 00:26:36;;;;;;;5.43;3.60;;;9.20;99.90;;;;;;5047529;28;20193;-67
2022/04/30 00:29:01;;;;;;;6.53;3.83;;;9.20;99.90;;;;;;5047624;28;20213;-67
2022/04/30 00:31:27;;;;;;;6.53;4.00;;;9.30;99.90;;;;;;5048132;28;20193;-68
2022/04/30 00:33:53;;;;;;;4.03;3.37;;;9.30;99.90;;;;;;5047684;28;20189;-68
2022/04/30 00:36:19;;;;;;;5.33;3.83;;;9.30;99.90;;;;;;5047421;28;20198;-66
2022/04/30 00:38:44;;;;;;;6.27;3.97;;;9.30;99.90;;;;;;5047510;28;20221;-69
2022/04/30 00:41:10;;;;;;;5.43;3.90;;;9.30;99.90;;;;;;5047486;28;20574;-68
2022/04/30 00:43:43;;;;;;;5.73;3.90;;;9.10;99.90;;;;;;5046356;28;20190;-68
2022/04/30 00:46:15;;;;;;;5.93;4.10;;;9.10;99.90;;;;;;5047370;28;20174;-68
2022/04/30 00:48:42;;;;;;;5.77;3.50;;;9.20;99.90;;;;;;5045878;28;20256;-68
2022/04/30 00:51:15;;;;;;;4.07;3.60;;;9.20;99.90;;;;;;5047808;28;20683;-66
2022/04/30 00:53:44;;;;;;;4.70;3.80;;;9.10;99.90;;;;;;5047643;28;20186;-66
2022/04/30 00:56:12;;;;;;;5.27;3.60;;;9.10;99.90;;;;;;5047196;28;20218;-67
2022/04/30 00:58:41;;;;;;;4.77;3.43;;;9.10;99.90;;;;;;5047132;28;20685;-68
2022/04/30 01:01:07;;;;;;;4.87;3.50;;;9.10;99.90;;;;;;5047468;28;20267;-67
2022/04/30 01:03:32;;;;;;;4.57;3.57;;;9.10;99.90;;;;;;5045820;28;20708;-68
2022/04/30 01:06:02;;;;;;;6.07;3.20;;;8.90;99.90;;;;;;5047427;28;20191;-67
2022/04/30 01:08:28;;;;;;;4.97;3.87;;;8.90;99.90;;;;;;5046665;28;20525;-67
2022/04/30 01:10:56;;;;;;;5.50;3.30;;;8.80;99.90;;;;;;5047339;28;20609;-68
2022/04/30 01:13:22;;;;;;;3.67;2.97;;;8.80;99.90;;;;;;5047495;28;20205;-68
2022/04/30 01:15:47;;;;;;;4.47;3.20;;;8.80;99.90;;;;;;5047651;28;20190;-67
2022/04/30 01:18:13;;;;;;;4.50;3.20;;;8.80;99.90;;;;;;5046234;28;20307;-70
2022/04/30 01:20:46;;;;;;;4.17;2.90;;;8.80;99.90;;;;;;5047242;28;20237;-67
2022/04/30 01:23:14;;;;;;;4.27;3.57;;;8.90;99.90;;;;;;5046975;28;20178;-68
2022/04/30 01:25:42;;;;;;;5.33;3.43;;;8.80;99.90;;;;;;5047199;28;20193;-66
2022/04/30 01:28:12;;;;;;;4.53;3.30;;;8.90;99.90;;;;;;5045043;28;20193;-67
2022/04/30 01:30:37;;;;;;;4.20;3.30;;;8.90;99.90;;;;;;5047146;28;20207;-68
2022/04/30 01:38:31;;;;;;;5.90;3.53;;;8.70;99.90;;;;;;5046540;28;20197;-67
2022/04/30 01:40:57;;;;;;;4.60;3.10;;;8.60;99.90;;;;;;5046598;28;20222;-68
2022/04/30 01:43:25;;;;;;;7.17;3.73;;;8.60;99.90;;;;;;5046403;28;20187;-68
2022/04/30 01:45:52;;;;;;;4.10;3.43;;;8.50;99.90;;;;;;5046521;28;20285;-68
2022/04/30 01:48:19;;;;;;;4.93;3.50;;;8.50;99.90;;;;;;5046100;28;20275;-67
2022/04/30 01:50:45;;;;;;;4.50;3.20;;;8.50;99.90;;;;;;5046992;28;20197;-68
2022/04/30 01:53:11;;;;;;;5.27;4.03;;;8.50;99.90;;;;;;5046860;28;20182;-68
2022/04/30 01:55:39;;;;;;;3.50;3.20;;;8.50;99.90;;;;;;5046767;28;20194;-68
2022/04/30 01:58:05;;;;;;;4.20;3.80;;;8.50;99.90;;;;;;5045807;28;20193;-68
2022/04/30 02:00:32;;;;;;;4.33;3.40;;;8.60;99.90;;;;;;5046495;28;20210;-67
2022/04/30 02:03:05;;;;;;;4.17;3.33;;;8.60;99.90;;;;;;5046578;28;20191;-67
2022/04/30 02:05:31;;;;;;;4.97;3.40;;;8.60;99.90;;;;;;5046662;28;20200;-68
2022/04/30 02:08:09;;;;;;;4.33;3.57;;;8.60;99.90;;;;;;5044356;28;20174;-68
2022/04/30 02:10:37;;;;;;;4.60;3.50;;;8.60;99.90;;;;;;5046019;28;20201;-67
2022/04/30 02:13:08;;;;;;;5.87;3.73;;;8.50;99.90;;;;;;5046333;28;20201;-68
2022/04/30 02:15:35;;;;;;;7.03;3.77;;;8.50;99.90;;;;;;5045956;28;20178;-69
2022/04/30 02:18:03;;;;;;;6.10;3.50;;;8.50;99.90;;;;;;5045458;28;20179;-67
2022/04/30 02:20:33;;;;;;;6.27;4.10;;;8.50;99.90;;;;;;5046252;28;20229;-67
2022/04/30 02:23:04;;;;;;;5.30;3.67;;;8.40;99.90;;;;;;5046165;28;20185;-68
2022/04/30 02:25:30;;;;;;;5.77;3.47;;;8.40;99.90;;;;;;5046054;28;20274;-67
2022/04/30 02:27:58;;;;;;;7.67;3.70;;;8.30;99.90;;;;;;5045189;28;20182;-66
2022/04/30 02:30:26;;;;;;;6.43;3.70;;;8.40;99.90;;;;;;5045681;28;20213;-67
2022/04/30 02:32:55;;;;;;;4.67;3.57;;;8.40;99.90;;;;;;5045843;28;20183;-68
2022/04/30 02:35:24;;;;;;;7.17;4.13;;;8.30;99.90;;;;;;5045902;28;20633;-68
2022/04/30 02:37:52;;;;;;;4.77;3.43;;;8.30;99.90;;;;;;5044901;28;20189;-67
2022/04/30 02:40:19;;;;;;;7.63;3.90;;;8.20;99.90;;;;;;5045566;28;20252;-67
2022/04/30 02:42:45;;;;;;;4.47;3.30;;;8.10;99.90;;;;;;5045927;28;20213;-68
2022/04/30 02:45:13;;;;;;;6.17;3.83;;;8.00;99.90;;;;;;5044503;28;20650;-67
2022/04/30 02:47:40;;;;;;;5.83;3.70;;;8.00;99.90;;;;;;5042905;28;20182;-66
2022/04/30 02:50:07;;;;;;;4.53;3.53;;;8.00;99.90;;;;;;5045721;28;20210;-67
2022/04/30 02:52:33;;;;;;;5.43;3.57;;;7.90;99.90;;;;;;5045970;28;20584;-67
2022/04/30 02:54:59;;;;;;;6.57;3.93;;;7.90;99.90;;;;;;5045525;28;20182;-67
2022/04/30 02:57:25;;;;;;;5.23;3.77;;;7.90;99.90;;;;;;5044859;28;20192;-67
2022/04/30 02:59:53;;;;;;;5.17;3.90;;;7.80;99.90;;;;;;5045293;28;20228;-68
2022/04/30 03:02:19;;;;;;;9.50;3.60;;;7.80;99.90;;;;;;5045327;28;20224;-67
2022/04/30 03:04:44;;;;;;;6.70;4.30;;;7.70;99.90;;;;;;5045548;28;20186;-68
2022/04/30 03:07:11;;;;;;;5.87;3.80;;;7.60;99.90;;;;;;5044396;28;20193;-67
2022/04/30 03:09:39;;;;;;;6.90;4.20;;;7.50;99.90;;;;;;5045105;28;20256;-67
2022/04/30 03:12:08;;;;;;;5.60;3.97;;;7.50;99.90;;;;;;5044248;28;20644;-68
2022/04/30 03:14:34;;;;;;;5.13;4.17;;;7.40;99.90;;;;;;5045327;28;20213;-67
2022/04/30 03:22:29;;;;;;;6.50;3.90;;;7.40;99.90;;;;;;5045057;28;20213;-68
2022/04/30 03:24:55;;;;;;;7.50;3.87;;;7.40;99.90;;;;;;5045218;28;20191;-68
2022/04/30 03:27:20;;;;;;;4.47;3.33;;;7.40;99.90;;;;;;5044488;28;20201;-66
2022/04/30 03:29:46;;;;;;;6.77;4.27;;;7.40;99.90;;;;;;5045002;28;20213;-67
2022/04/30 03:32:12;;;;;;;4.90;3.57;;;7.50;99.90;;;;;;5045110;28;20660;-67
2022/04/30 03:34:38;;;;;;;5.43;3.80;;;7.50;99.90;;;;;;5044648;28;20190;-68
2022/04/30 03:37:04;;;;;;;5.90;4.10;;;7.50;99.90;;;;;;5043852;28;20208;-68
2022/04/30 03:39:30;;;;;;;4.93;3.90;;;7.60;99.90;;;;;;5044108;28;20276;-67
2022/04/30 03:41:55;;;;;;;6.97;3.80;;;7.60;99.90;;;;;;5044521;28;20742;-67
2022/04/30 03:44:21;;;;;;;4.43;3.63;;;7.70;99.90;;;;;;5044263;28;20265;-68
2022/04/30 03:46:46;;;;;;;4.53;3.73;;;7.80;99.90;;;;;;5043743;28;20193;-67
2022/04/30 03:49:12;;;;;;;5.60;3.80;;;7.70;99.90;;;;;;5043679;28;20645;-67
2022/04/30 03:51:38;;;;;;;5.27;3.63;;;7.80;99.90;;;;;;5044371;28;20189;-68
2022/04/30 03:54:04;;;;;;;5.70;3.83;;;7.80;99.90;;;;;;5044278;28;20200;-67
2022/04/30 03:56:31;;;;;;;6.60;3.73;;;7.70;99.90;;;;;;5043914;28;20194;-68
2022/04/30 03:58:56;;;;;;;5.73;3.70;;;7.80;99.90;;;;;;5043207;28;20299;-67
2022/04/30 04:01:22;;;;;;;6.53;3.67;;;7.70;99.90;;;;;;5043906;28;20304;-67
2022/04/30 04:03:50;;;;;;;7.30;4.07;;;7.70;99.90;;;;;;5044409;28;20189;-67
2022/04/30 04:06:16;;;;;;;6.67;4.03;;;7.60;99.90;;;;;;5042164;28;20190;-67
2022/04/30 04:08:43;;;;;;;4.73;3.63;;;7.60;99.90;;;;;;5043551;28;20206;-67
2022/04/30 04:11:13;;;;;;;5.37;3.53;;;7.50;99.90;;;;;;5044257;28;20759;-67
2022/04/30 04:19:09;;;;;;;4.13;3.43;;;7.50;99.90;;;;;;5043490;28;20213;-68
2022/04/30 04:21:35;;;;;;;5.67;4.10;;;7.50;99.90;;;;;;5044028;28;20205;-66
2022/04/30 04:26:45;;;;;;;5.43;3.63;;;7.60;99.90;;;;;;5043475;28;20197;-66
2022/04/30 04:29:11;;;;;;;4.80;3.93;;;7.70;99.90;;;;;;5042468;28;20570;-67
2022/04/30 04:31:37;;;;;;;4.63;3.63;;;7.60;99.90;;;;;;5044042;28;20198;-67
2022/04/30 04:34:02;;;;;;;5.53;3.83;;;7.70;99.90;;;;;;5042322;28;20186;-67
2022/04/30 04:36:28;;;;;;;4.83;3.90;;;7.70;99.90;;;;;;5043532;28;20646;-68
2022/04/30 04:38:54;;;;;;;5.30;3.63;;;7.80;99.90;;;;;;5043359;28;20214;-67
2022/04/30 04:41:19;;;;;;;5.60;3.83;;;7.90;99.90;;;;;;5043724;28;20224;-67
2022/04/30 04:43:45;;;;;;;7.10;4.53;;;7.90;99.90;;;;;;5044284;28;20190;-66
2022/04/30 04:46:11;;;;;;;5.43;4.80;;;7.90;99.90;;;;;;5043253;28;20181;-66
2022/04/30 04:48:37;;;;;;;8.17;4.53;;;8.00;99.90;;;;;;5043773;28;20309;-67
2022/04/30 04:51:03;;;;;;;7.70;3.83;;;8.00;99.90;;;;;;5043686;28;20197;-67
2022/04/30 04:53:29;;;;;;;7.10;3.90;;;7.90;99.90;;;;;;5043758;28;20197;-68
2022/04/30 04:55:55;;;;;;;4.30;3.70;;;8.00;99.90;;;;;;5043665;28;20196;-68
2022/04/30 04:58:20;;;;;;;6.53;3.87;;;8.10;99.90;;;;;;5043044;28;20194;-68
2022/04/30 05:00:46;;;;;;;5.77;3.80;;;8.20;99.90;;;;;;5043596;28;20409;-68
2022/04/30 05:03:13;;;;;;;7.37;4.73;;;8.20;99.90;;;;;;5043502;28;20185;-68
2022/04/30 05:05:38;;;;;;;5.17;3.93;;;8.30;99.90;;;;;;5044037;28;20201;-66
2022/04/30 05:08:04;;;;;;;7.07;4.07;;;8.20;99.90;;;;;;5042703;28;20222;-67
2022/04/30 05:10:30;;;;;;;5.07;3.90;;;8.20;99.90;;;;;;5045036;28;20213;-67
2022/04/30 05:12:55;;;;;;;5.57;4.10;;;8.30;99.90;;;;;;5047363;28;20248;-67
2022/04/30 05:15:21;;;;;;;7.27;3.83;;;8.40;99.90;;;;;;5045952;28;20640;-68
2022/04/30 05:17:47;;;;;;;6.67;4.30;;;8.40;99.90;;;;;;5046429;28;20190;-68
2022/04/30 05:20:13;;;;;;;7.23;4.00;;;8.30;99.90;;;;;;5046974;28;20559;-68
2022/04/30 05:22:38;;;;;;;7.03;4.37;;;8.30;99.90;;;;;;5047255;28;20235;-66
2022/04/30 05:25:04;;;;;;;5.83;4.30;;;8.40;99.90;;;;;;5045833;28;20186;-67
2022/04/30 05:27:30;;;;;;;6.50;4.50;;;8.40;99.90;;;;;;5046604;28;20198;-68
2022/04/30 05:29:55;;;;;;;7.17;4.10;;;8.50;99.90;;;;;;5043436;28;20226;-67
2022/04/30 05:32:21;;;;;;;6.93;4.60;;;8.50;99.90;;;;;;5046404;28;20309;-68
2022/04/30 05:34:47;;;;;;;5.50;3.97;;;8.50;99.90;;;;;;5045734;28;20198;-67
2022/04/30 05:37:13;;;;;;;5.73;3.60;;;8.60;99.90;;;;;;5045030;28;20218;-66
2022/04/30 05:39:38;;;;;;;3.50;3.00;;;8.70;99.90;;;;;;5045916;28;20232;-66
2022/04/30 05:42:05;;;;;;;6.00;3.67;;;8.80;99.90;;;;;;5045837;28;20578;-66
2022/04/30 05:44:30;;;;;;;5.83;3.43;;;8.90;99.90;;;;;;5044520;28;20185;-66
2022/04/30 05:46:56;;;;;;;7.17;3.50;;;8.90;99.90;;;;;;5044506;28;20189;-66
2022/04/30 05:49:22;;;;;;;5.37;3.70;;;8.80;99.90;;;;;;5045759;28;20206;-67
2022/04/30 05:51:49;;;;;;;4.10;3.43;;;8.90;99.90;;;;;;5045797;28;20218;-66
2022/04/30 05:54:15;;;;;;;4.67;3.30;;;8.90;99.90;;;;;;5046003;28;20638;-67
2022/04/30 05:56:40;;;;;;;10.73;3.73;;;8.90;99.90;;;;;;5045196;28;20226;-66
2022/04/30 05:59:06;;;;;;;6.03;3.43;;;8.90;99.90;;;;;;5045715;28;20213;-67
2022/04/30 06:01:31;;;;;;;5.73;3.23;;;8.80;99.90;;;;;;5045582;28;20213;-67
2022/04/30 06:03:57;;;;;;;4.47;3.17;;;8.90;99.90;;;;;;5045510;28;20206;-66
2022/04/30 06:06:23;;;;;;;6.17;3.33;;;9.00;99.90;;;;;;5043415;28;20685;-66
2022/04/30 06:08:49;;;;;;;6.50;3.70;;;9.10;99.90;;;;;;5045384;28;20206;-67
2022/04/30 06:11:14;;;;;;;5.13;3.40;;;9.30;99.90;;;;;;5045795;28;20194;-66
2022/04/30 06:13:40;;;;;;;4.77;3.13;;;9.30;99.90;;;;;;5045611;28;20228;-67
2022/04/30 06:16:06;;;;;;;6.97;3.50;;;9.30;99.90;;;;;;5045614;28;20190;-66
2022/04/30 06:18:31;;;;;;;5.43;3.40;;;9.30;99.90;;;;;;5044572;28;20201;-67
2022/04/30 06:20:57;;;;;;;6.60;3.27;;;9.30;99.90;;;;;;5045203;28;20217;-67
2022/04/30 06:23:23;;;;;;;9.10;3.43;;;9.30;99.90;;;;;;5044601;28;20182;-67
2022/04/30 06:25:49;;;;;;;3.93;3.50;;;9.30;99.90;;;;;;5045510;28;20198;-66
2022/04/30 06:28:15;;;;;;;7.07;3.57;;;9.30;99.90;;;;;;5044276;28;20551;-67
2022/04/30 06:30:42;;;;;;;6.70;4.10;;;9.40;99.90;;;;;;5045342;28;20190;-67
2022/04/30 06:33:08;;;;;;;5.27;3.20;;;9.60;99.90;;;;;;5043835;28;20195;-66
2022/04/30 06:35:35;;;;;;;7.27;3.80;;;9.70;99.90;;;;;;5044915;28;20194;-67
2022/04/30 06:38:01;;;;;;;7.07;3.63;;;9.70;99.90;;;;;;5044214;28;20193;-66
2022/04/30 06:40:27;;;;;;;4.63;3.20;;;9.70;99.90;;;;;;5044997;28;20230;-66
2022/04/30 06:42:52;;;;;;;4.80;3.20;;;9.60;99.90;;;;;;5044962;28;20645;-66
2022/04/30 06:45:18;;;;;;;5.33;3.10;;;9.40;99.90;;;;;;5045090;28;20214;-68
2022/04/30 06:47:43;;;;;;;6.17;3.00;;;9.30;99.90;;;;;;5043761;28;20186;-67
2022/04/30 06:50:10;;;;;;;5.80;3.27;;;9.20;99.90;;;;;;5044416;28;20233;-66
2022/04/30 06:57:07;;;;;;;6.50;3.77;;;8.80;99.90;;;;;;5044960;28;20233;-67
2022/04/30 06:58:10;;;;;;;7.73;3.30;;;8.80;99.90;;;;;;5043899;28;20192;-67
2022/04/30 07:03:23;;;;;;;6.07;4.40;;;9.10;99.90;;;;;;5044309;28;20643;-66
2022/04/30 07:06:02;;;;;;;6.00;3.87;;;9.10;99.90;;;;;;5044281;28;20190;-66
2022/04/30 07:08:32;;;;;;;7.73;3.47;;;9.20;99.90;;;;;;5043467;28;20315;-67
2022/04/30 07:10:58;;;;;;;4.67;3.37;;;9.40;99.90;;;;;;5044113;28;20669;-67
2022/04/30 07:13:24;;;;;;;4.53;3.43;;;9.50;99.90;;;;;;5044603;28;20227;-67
2022/04/30 07:15:49;;;;;;;5.17;3.07;;;9.60;99.90;;;;;;5044397;28;20678;-66
2022/04/30 07:18:15;;;;;;;4.83;2.77;;;9.60;99.90;;;;;;5043375;28;20183;-68
2022/04/30 07:20:41;;;;;;;5.00;3.30;;;9.80;99.90;;;;;;5044435;28;20257;-67
2022/04/30 07:23:06;;;;;;;7.57;2.80;;;9.80;99.90;;;;;;5043967;28;20410;-66
2022/04/30 07:25:32;;;;;;;4.50;2.80;;;9.90;99.90;;;;;;5044203;28;20320;-66
2022/04/30 07:27:58;;;;;;;5.20;3.27;;;9.90;99.90;;;;;;5041569;28;20185;-66
2022/04/30 07:30:23;;;;;;;4.33;2.80;;;9.90;99.90;;;;;;5043922;28;20202;-66
2022/04/30 07:32:49;;;;;;;5.57;3.60;;;10.00;99.90;;;;;;5043279;28;20209;-67
2022/04/30 07:35:15;;;;;;;6.47;2.90;;;10.20;99.90;;;;;;5041965;28;20272;-67
2022/04/30 07:37:41;;;;;;;6.20;3.40;;;10.30;99.90;;;;;;5043479;28;20181;-67
2022/04/30 07:40:08;;;;;;;5.17;3.13;;;10.50;99.90;;;;;;5042683;28;20604;-67
2022/04/30 07:42:34;;;;;;;4.50;2.90;;;10.60;99.90;;;;;;5041907;28;20557;-67
2022/04/30 07:44:59;;;;;;;3.53;2.80;;;10.70;99.90;;;;;;5043369;28;20194;-67
2022/04/30 07:47:29;;;;;;;5.17;2.80;;;10.70;99.90;;;;;;5041050;28;20194;-67
2022/04/30 07:49:55;;;;;;;4.93;2.77;;;10.90;99.90;;;;;;5043588;28;20201;-67
2022/04/30 07:52:21;;;;;;;4.97;2.97;;;11.20;99.90;;;;;;5043867;28;20197;-67
2022/04/30 07:54:47;;;;;;;5.83;2.97;;;11.40;99.90;;;;;;5043331;28;20228;-67
2022/04/30 07:57:12;;;;;;;2.85;2.50;;;11.60;99.90;;;;;;5042847;28;20251;-68
2022/04/30 07:59:38;;;;;;;4.80;3.00;;;11.60;99.90;;;;;;5043625;28;20301;-68
2022/04/30 08:02:04;;;;;;;5.93;3.03;;;11.50;99.90;;;;;;5043271;28;20220;-67
2022/04/30 08:04:30;;;;;;;5.27;3.17;;;11.30;99.90;;;;;;5043700;28;20610;-67
2022/04/30 08:06:55;;;;;;;6.70;2.95;;;11.80;99.90;;;;;;5042533;28;20789;-68
2022/04/30 08:09:21;;;;;;;5.47;3.10;;;12.00;99.90;;;;;;5043112;28;20210;-66
2022/04/30 08:11:47;;;;;;;7.53;3.43;;;12.10;99.90;;;;;;5043398;28;20194;-66
2022/04/30 08:14:13;;;;;;;4.72;3.08;;;12.20;99.90;;;;;;5043599;28;20260;-68
2022/04/30 08:16:38;;;;;;;3.33;2.43;;;12.00;99.90;;;;;;5042708;28;20232;-67
2022/04/30 08:19:04;;;;;;;5.25;2.70;;;12.20;99.90;;;;;;5040954;28;20202;-66
2022/04/30 08:21:30;;;;;;;3.65;2.50;;;12.50;99.90;;;;;;5041999;28;20628;-68
2022/04/30 08:23:56;;;;;;;4.97;2.50;;;12.60;99.90;;;;;;5043029;28;20241;-67
2022/04/30 08:26:21;;;;;;;3.72;2.50;;;12.60;99.90;;;;;;5042483;28;20884;-67
2022/04/30 08:28:47;;;;;;;4.50;3.03;;;13.00;99.90;;;;;;5041377;28;20319;-67
2022/04/30 08:31:13;;;;;;;5.10;2.50;;;13.20;99.90;;;;;;5043241;28;20186;-67
2022/04/30 08:33:38;;;;;;;4.25;2.30;;;13.40;99.90;;;;;;5043334;28;20197;-67
2022/04/30 08:36:05;;;;;;;5.80;2.40;;;13.40;99.90;;;;;;5043512;28;20189;-68
2022/04/30 08:38:30;;;;;;;5.30;2.78;;;13.40;99.90;;;;;;5042813;28;20190;-67
2022/04/30 08:40:56;;;;;;;4.05;2.70;;;13.40;99.90;;;;;;5043087;28;20221;-67
2022/04/30 08:43:23;;;;;;;5.45;2.88;;;13.20;99.90;;;;;;5042967;28;20183;-67
2022/04/30 08:45:48;;;;;;;3.08;2.72;;;13.00;99.90;;;;;;5044503;28;20327;-68
2022/04/30 08:48:16;;;;;;;3.28;2.53;;;13.10;99.90;;;;;;5046304;28;20793;-67
2022/04/30 08:50:47;;;;;;;5.10;2.67;;;13.20;99.90;;;;;;5047223;28;20194;-68
2022/04/30 08:53:14;;;;;;;4.93;2.53;;;13.50;99.90;;;;;;5047310;28;20518;-67
2022/04/30 08:55:40;;;;;;;4.32;2.60;;;13.80;99.90;;;;;;5045895;28;20285;-67
2022/04/30 08:58:05;;;;;;;4.38;2.60;;;14.00;99.90;;;;;;5046253;28;20301;-67
2022/04/30 09:00:38;;;;;;;4.10;2.13;;;13.70;99.90;;;;;;5047386;28;20328;-67
2022/04/30 09:03:04;;;;;;;4.53;2.35;;;13.70;99.90;;;;;;5045973;28;20289;-66
2022/04/30 09:05:32;;;;;;;4.63;2.90;;;13.70;99.90;;;;;;5046679;28;20288;-67
2022/04/30 09:07:59;;;;;;;5.63;2.70;;;14.00;99.90;;;;;;5046209;28;20193;-67
2022/04/30 09:10:31;;;;;;;4.35;2.80;;;14.20;99.90;;;;;;5046970;28;20206;-68
2022/04/30 09:13:10;;;;;;;2.85;2.65;;;14.40;99.90;;;;;;5047313;28;20232;-68
2022/04/30 09:15:37;;;;;;;4.20;2.58;;;14.10;99.90;;;;;;5047309;28;20716;-67
2022/04/30 09:18:04;;;;;;;4.07;2.58;;;14.10;99.90;;;;;;5044876;28;20528;-67
2022/04/30 09:20:40;;;;;;;5.63;2.95;;;14.20;99.90;;;;;;5046877;28;20613;-67
2022/04/30 09:23:06;;;;;;;4.57;2.78;;;14.20;99.90;;;;;;5045835;28;20221;-67
2022/04/30 09:25:31;;;;;;;3.50;2.72;;;14.40;99.90;;;;;;5046867;28;20313;-67
2022/04/30 09:27:57;;;;;;;4.50;2.67;;;14.60;99.90;;;;;;5046107;28;20182;-67
2022/04/30 09:30:25;;;;;;;5.28;2.88;;;14.60;99.90;;;;;;5046607;28;20544;-67
2022/04/30 09:33:07;;;;;;;5.55;3.00;;;14.70;99.90;;;;;;5046702;28;20186;-68
2022/04/30 09:38:19;;;;;;;10.60;8.60;;;14.20;99.90;;;;;;5045601;28;20240;-67
2022/04/30 09:40:57;;;;;;;4.25;2.58;;;14.30;99.90;;;;;;5046745;28;20217;-67
2022/04/30 09:43:29;;;;;;;3.70;2.63;;;14.00;99.90;;;;;;5046258;28;20178;-67
2022/04/30 09:45:59;;;;;;;4.50;2.70;;;14.00;99.90;;;;;;5045333;28;20668;-67
2022/04/30 09:53:56;;;;;;;5.15;2.95;;;14.20;99.90;;;;;;5046509;28;20201;-67
2022/04/30 09:56:34;;;;;;;4.65;2.97;;;14.20;99.90;;;;;;5045657;28;20269;-67
2022/04/30 09:59:10;;;;;;;7.25;3.17;;;14.30;99.90;;;;;;5045518;28;20202;-67
2022/04/30 10:01:37;;;;;;;5.07;3.13;;;14.30;99.90;;;;;;5046100;28;20612;-66
2022/04/30 10:04:13;;;;;;;5.78;3.05;;;14.50;99.90;;;;;;5046180;28;20268;-68
2022/04/30 10:06:48;;;;;;;3.50;2.60;;;14.30;99.90;;;;;;5045447;28;20657;-67
2022/04/30 10:09:22;;;;;;;6.38;3.40;;;14.30;99.90;;;;;;5045550;28;20197;-67
2022/04/30 10:12:01;;;;;;;6.93;2.72;;;14.60;99.90;;;;;;5045909;28;20204;-66
2022/04/30 10:14:47;;;;;;;5.95;3.15;;;15.00;99.90;;;;;;5045768;28;20220;-65
2022/04/30 10:17:16;;;;;;;5.13;3.20;;;15.30;99.90;;;;;;5045222;28;20846;-68
2022/04/30 10:20:08;;;;;;;5.50;3.42;;;15.10;99.90;;;;;;5045654;28;20696;-68
2022/04/30 10:22:35;;;;;;;3.58;2.90;;;15.50;99.90;;;;;;5045143;28;20301;-68
2022/04/30 10:25:02;;;;;;;8.38;6.75;;;15.60;99.90;;;;;;5044197;28;20196;-69
2022/04/30 10:27:41;;;;;;;7.55;5.88;;;15.40;99.90;;;;;;5044625;28;20217;-67
2022/04/30 10:30:18;;;;;;;4.60;2.90;;;15.00;99.90;;;;;;5043774;28;20272;-67
2022/04/30 10:32:56;;;;;;;4.85;3.03;;;15.20;99.90;;;;;;5044458;28;20272;-66
2022/04/30 10:35:48;;;;;;;4.68;2.95;;;15.60;99.90;;;;;;5045509;28;20186;-66
2022/04/30 10:38:21;;;;;;;7.18;3.88;;;15.90;99.90;;;;;;5040480;28;20202;-67
2022/04/30 10:40:48;;;;;;;5.45;3.53;;;16.20;99.90;;;;;;5045296;28;20237;-68
2022/04/30 10:43:26;;;;;;;9.55;3.30;;;16.00;99.90;;;;;;5045307;28;20224;-68
2022/04/30 10:45:52;;;;;;;4.00;2.83;;;15.90;99.90;;;;;;5045249;28;20170;-66
2022/04/30 10:48:19;;;;;;;5.65;2.60;;;15.80;99.90;;;;;;5044109;28;20260;-67
2022/04/30 10:50:47;;;;;;;4.35;2.60;;;15.70;99.90;;;;;;5045430;28;20190;-66
2022/04/30 10:53:14;;;;;;;4.18;2.83;;;15.70;99.90;;;;;;5045168;28;20597;-67
2022/04/30 10:55:40;;;;;;;5.15;2.88;;;15.50;99.90;;;;;;5044845;28;20232;-71
2022/04/30 10:58:06;;;;;;;4.78;2.97;;;15.30;99.90;;;;;;5044070;28;20190;-68
2022/04/30 11:00:32;;;;;;;4.28;2.97;;;15.60;99.90;;;;;;5044773;28;20583;-67
2022/04/30 11:03:10;;;;;;;5.18;3.00;;;15.60;99.90;;;;;;5044959;28;21336;-69
2022/04/30 11:05:36;;;;;;;4.22;2.70;;;15.70;99.90;;;;;;5044946;28;20186;-69
2022/04/30 11:08:03;;;;;;;3.75;2.90;;;15.20;99.90;;;;;;5043775;28;20178;-67
2022/04/30 11:10:31;;;;;;;5.22;3.03;;;15.30;99.90;;;;;;5044798;28;20224;-69
2022/04/30 11:13:05;;;;;;;4.70;3.20;;;15.50;99.90;;;;;;5044803;28;20179;-67
2022/04/30 11:15:30;;;;;;;5.35;3.03;;;15.80;99.90;;;;;;5044754;28;20182;-68
2022/04/30 11:17:58;;;;;;;5.65;3.08;;;15.70;99.90;;;;;;5044052;28;20194;-67
2022/04/30 11:20:25;;;;;;;5.60;3.33;;;15.60;99.90;;;;;;5044626;28;20210;-69
2022/04/30 11:22:55;;;;;;;5.55;3.50;;;15.60;99.90;;;;;;5044394;28;20636;-69
2022/04/30 11:25:22;;;;;;;4.97;3.15;;;15.60;99.90;;;;;;5044533;28;20641;-67
2022/04/30 11:27:47;;;;;;;4.97;3.38;;;15.70;99.90;;;;;;5043633;28;20194;-69
2022/04/30 11:30:13;;;;;;;5.75;3.33;;;15.70;99.90;;;;;;5044323;28;20268;-67
2022/04/30 11:32:39;;;;;;;4.47;3.45;;;15.60;99.90;;;;;;5044364;28;20197;-68
2022/04/30 11:35:05;;;;;;;3.88;3.10;;;15.90;99.90;;;;;;5044311;28;20679;-69
2022/04/30 11:37:38;;;;;;;5.82;3.45;;;16.00;99.90;;;;;;5043705;28;20248;-67
2022/04/30 11:40:05;;;;;;;4.18;3.30;;;15.90;99.90;;;;;;5044324;28;20221;-69
2022/04/30 11:42:32;;;;;;;6.22;3.53;;;16.00;99.90;;;;;;5042403;28;21298;-67
2022/04/30 11:44:57;;;;;;;6.88;3.63;;;15.80;99.90;;;;;;5044967;28;20201;-66
2022/04/30 11:47:24;;;;;;;6.22;4.00;;;15.20;99.90;;;;;;5042990;28;20182;-69
2022/04/30 11:50:03;;;;;;;5.28;3.40;;;15.10;99.90;;;;;;5043821;28;20206;-68
2022/04/30 11:52:29;;;;;;;4.72;3.28;;;15.40;99.90;;;;;;5044018;28;20209;-66
2022/04/30 11:54:55;;;;;;;4.30;3.33;;;15.40;99.90;;;;;;5043509;28;20771;-66
2022/04/30 11:57:21;;;;;;;4.18;3.38;;;15.60;99.90;;;;;;5043113;28;20220;-67
2022/04/30 11:59:48;;;;;;;5.10;3.63;;;15.60;99.90;;;;;;5043044;28;20202;-67
2022/04/30 12:02:15;;;;;;;6.40;3.92;;;15.40;99.90;;;;;;5041653;28;20600;-68
2022/04/30 12:04:41;;;;;;;5.43;3.38;;;15.40;99.90;;;;;;5042505;28;21388;-68
2022/04/30 12:07:08;;;;;;;5.57;3.28;;;15.80;99.90;;;;;;5042577;28;20265;-67
2022/04/30 12:09:38;;;;;;;4.32;3.30;;;15.90;99.90;;;;;;5043199;28;20665;-68
2022/04/30 12:12:21;;;;;;;4.25;3.20;;;15.70;99.90;;;;;;5043578;28;20186;-69
2022/04/30 12:14:52;;;;;;;4.70;3.53;;;15.70;99.90;;;;;;5043586;28;20188;-68
2022/04/30 12:17:26;;;;;;;6.93;3.47;;;15.80;99.90;;;;;;5042570;28;20182;-67
2022/04/30 12:24:40;;;;;;;4.82;3.20;;;15.90;99.90;;;;;;5042662;28;20314;-68
2022/04/30 12:25:33;;;;;;;3.80;2.83;;;15.80;99.90;;;;;;5047323;28;20174;-68
2022/04/30 12:28:02;;;;;;;5.25;2.72;;;16.10;99.90;;;;;;5046670;28;20174;-69
2022/04/30 12:30:28;;;;;;;4.20;3.17;;;16.40;99.90;;;;;;5047557;28;20206;-69
2022/04/30 12:33:04;;;;;;;7.47;4.00;;;16.50;99.90;;;;;;5047621;28;20185;-67
2022/04/30 12:35:35;;;;;;;4.05;2.90;;;15.80;99.90;;;;;;5047755;28;20654;-68
2022/04/30 12:38:05;;;;;;;6.63;3.47;;;15.60;99.90;;;;;;5045646;28;20225;-68
2022/04/30 12:40:33;;;;;;;5.53;3.17;;;15.80;99.90;;;;;;5047206;28;20226;-69
2022/04/30 12:42:58;;;;;;;3.10;2.80;;;16.00;99.90;;;;;;5047798;28;20193;-69
2022/04/30 12:45:25;;;;;;;3.63;2.40;;;16.10;99.90;;;;;;5047410;28;20189;-68
2022/04/30 12:47:51;;;;;;;4.20;2.83;;;16.30;99.90;;;;;;5045526;28;20179;-69
2022/04/30 12:50:17;;;;;;;4.82;3.08;;;16.30;99.90;;;;;;5047757;28;20557;-69
2022/04/30 12:52:42;;;;;;;5.32;2.60;;;15.90;99.90;;;;;;5047201;28;20239;-69
2022/04/30 12:55:11;;;;;;;3.03;2.47;;;16.00;99.90;;;;;;5047488;28;20185;-68
2022/04/30 12:57:37;;;;;;;3.72;3.00;;;16.20;99.90;;;;;;5046330;28;20217;-69
2022/04/30 13:00:04;;;;;;;6.10;3.20;;;16.40;99.90;;;;;;5047117;28;20723;-70
2022/04/30 13:02:30;;;;;;;6.13;3.30;;;16.10;99.90;;;;;;5047457;28;20217;-68
2022/04/30 13:04:56;;;;;;;4.60;2.90;;;16.10;99.90;;;;;;5047209;28;20313;-69
2022/04/30 13:07:22;;;;;;;5.43;3.00;;;16.20;99.80;;;;;;5046488;28;20276;-69
2022/04/30 13:15:16;;;;;;;4.90;3.45;;;16.50;99.90;;;;;;5047190;28;20196;-67
2022/04/30 13:17:42;;;;;;;6.55;3.03;;;16.90;98.80;;;;;;5046020;28;20189;-68
2022/04/30 13:20:10;;;;;;;4.35;2.90;;;17.00;99.00;;;;;;5046977;28;20623;-68
2022/04/30 13:22:36;;;;;;;3.60;2.67;;;17.30;99.60;;;;;;5045772;28;20287;-69
2022/04/30 13:25:02;;;;;;;4.50;2.97;;;17.50;98.60;;;;;;5046810;28;20649;-70
2022/04/30 13:27:28;;;;;;;6.13;3.13;;;17.20;99.90;;;;;;5044870;28;20190;-68
2022/04/30 13:29:53;;;;;;;4.07;2.60;;;17.10;99.10;;;;;;5046532;28;20198;-68
2022/04/30 13:32:19;;;;;;;5.20;2.80;;;17.00;99.90;;;;;;5046896;28;20645;-69
2022/04/30 13:34:44;;;;;;;4.35;2.55;;;17.10;99.30;;;;;;5046770;28;20186;-67
2022/04/30 13:37:10;;;;;;;7.65;3.15;;;17.10;99.50;;;;;;5044783;28;20602;-68